»·PEaware :: N3020M KHHR-KPSP

N3020M :: KHHR-KPSP

FLIGHT INFORMATION

Flight Status: Arrived
Operator: Privately registered:
United States
More flights under this callsign
Pilot: Adjua A. (12352)
Aircraft: BEECH AIRCRAFT A90-E90 KING AIR
(BE9L)
More flights by this aircraft type
Origin: KHHR Northrop/Hawthorne Mun
United States
Destination: KPSP Palm Springs Intl
United States
More flights between these airports :: More routes between these airports
Route: +LIMBO SLI V64 TRM
File this flight plan on PilotEdge
Remarks:
Altitude:
(Current/Filed)
11,000ft
Speed:
(Current/Filed)
190kts
Departed: 16-Apr-18 01:31 PM
Arrived: 16-Apr-18 02:20 PM
Distance/Time
Traveled:
91nm/0:49
Distance/Time
To Go:
Arrived

Flight Plot

Page will automatically refresh every two minutes.

Flight plan parsing failed; only flown route is shown


Map Options




Map Legend


Flown Route
Filed Route
Departure Airport
Arrival Airport
Navaid (VOR, NDB)
Fix

Horizontal Profiles

Position Reports

Time Latitude Longitude Heading Altitude Ground
Speed
16-Apr-18 13:07 33.922225 -118.330273 179 71ft 0kts
16-Apr-18 13:08 33.922225 -118.330273 179 71ft 0kts
16-Apr-18 13:09 33.922221 -118.330273 180 71ft 0kts
16-Apr-18 13:10 33.922216 -118.330273 180 71ft 0kts
16-Apr-18 13:11 33.922211 -118.330273 180 71ft 0kts
16-Apr-18 13:12 33.922207 -118.330273 180 71ft 0kts
16-Apr-18 13:13 33.922202 -118.330273 180 71ft 0kts
16-Apr-18 13:14 33.922197 -118.330273 180 71ft 0kts
16-Apr-18 13:15 33.922192 -118.330273 180 71ft 0kts
16-Apr-18 13:16 33.922188 -118.330273 180 71ft 0kts
16-Apr-18 13:17 33.922183 -118.330273 180 71ft 0kts
16-Apr-18 13:18 33.922178 -118.330273 180 71ft 0kts
16-Apr-18 13:19 33.922173 -118.330273 180 71ft 0kts
16-Apr-18 13:20 33.922169 -118.330273 179 71ft 0kts
16-Apr-18 13:21 33.922164 -118.330273 179 71ft 0kts
16-Apr-18 13:22 33.922159 -118.330273 179 71ft 0kts
16-Apr-18 13:23 33.922155 -118.330273 179 71ft 0kts
16-Apr-18 13:24 33.922413 -118.330053 9 71ft 7kts
16-Apr-18 13:25 33.922715 -118.329213 87 71ft 5kts
16-Apr-18 13:26 33.922766 -118.328070 86 71ft 6kts
16-Apr-18 13:27 33.922852 -118.327306 50 71ft 0kts
16-Apr-18 13:28 33.922855 -118.327302 50 71ft 0kts
16-Apr-18 13:29 33.922870 -118.327283 43 71ft 1kts
16-Apr-18 13:30 33.923104 -118.330178 265 71ft 60kts
16-Apr-18 13:31 33.920029 -118.363058 261 1229ft 103kts
16-Apr-18 13:32 33.912296 -118.393198 258 2397ft 122kts
16-Apr-18 13:33 33.899310 -118.436179 240 3799ft 128kts
16-Apr-18 13:34 33.863146 -118.450534 179 5237ft 154kts
16-Apr-18 13:35 33.817987 -118.448474 185 6636ft 168kts
16-Apr-18 13:36 33.777815 -118.423957 113 7838ft 166kts
16-Apr-18 13:37 33.768216 -118.373032 72 9137ft 149kts
16-Apr-18 13:38 33.802487 -118.369124 308 10221ft 166kts
16-Apr-18 13:39 33.787269 -118.419319 216 11043ft 206kts
16-Apr-18 13:40 33.745638 -118.469372 259 11024ft 224kts
16-Apr-18 13:41 33.705419 -118.519617 168 11004ft 243kts
16-Apr-18 13:42 33.647404 -118.481047 142 11003ft 240kts
16-Apr-18 13:43 33.607012 -118.426345 75 11002ft 216kts
16-Apr-18 13:44 33.636750 -118.366133 55 11003ft 211kts
16-Apr-18 13:45 33.665463 -118.305437 56 11002ft 208kts
16-Apr-18 13:46 33.693914 -118.245005 56 11003ft 207kts
16-Apr-18 13:47 33.721864 -118.185611 61 11002ft 202kts
16-Apr-18 13:48 33.749592 -118.126568 63 11003ft 204kts
16-Apr-18 13:49 33.777458 -118.067099 60 11002ft 202kts
16-Apr-18 13:50 33.779184 -117.999382 90 11004ft 209kts
16-Apr-18 13:51 33.773984 -117.929504 90 11003ft 210kts
16-Apr-18 13:52 33.768701 -117.859380 89 11003ft 213kts
16-Apr-18 13:53 33.763247 -117.787744 89 11003ft 216kts
16-Apr-18 13:54 33.757694 -117.715273 89 11003ft 217kts
16-Apr-18 13:55 33.752138 -117.643191 89 11039ft 217kts
16-Apr-18 13:56 33.746512 -117.570898 89 11039ft 217kts
16-Apr-18 13:57 33.740823 -117.498262 89 11039ft 218kts
16-Apr-18 13:58 33.735095 -117.425882 89 11039ft 218kts
16-Apr-18 13:59 33.729333 -117.353493 89 11039ft 218kts
16-Apr-18 14:00 33.723531 -117.280890 89 11039ft 218kts
16-Apr-18 14:01 33.717690 -117.208536 90 11039ft 218kts
16-Apr-18 14:02 33.711800 -117.136160 90 11039ft 218kts
16-Apr-18 14:03 33.705836 -117.063497 90 11039ft 218kts
16-Apr-18 14:04 33.699852 -116.991157 90 11039ft 218kts
16-Apr-18 14:05 33.693829 -116.918778 90 11039ft 218kts
16-Apr-18 14:06 33.687741 -116.846156 90 11039ft 218kts
16-Apr-18 14:07 33.681724 -116.775009 90 11255ft 212kts
16-Apr-18 14:08 33.675658 -116.703536 90 11261ft 216kts
16-Apr-18 14:09 33.669481 -116.631513 90 11249ft 216kts
16-Apr-18 14:10 33.664467 -116.568973 86 10420ft 181kts
16-Apr-18 14:11 33.660519 -116.508338 89 9517ft 180kts
16-Apr-18 14:12 33.653622 -116.450232 91 9286ft 169kts
16-Apr-18 14:13 33.649405 -116.392577 85 8634ft 175kts
16-Apr-18 14:14 33.671866 -116.348716 13 7756ft 162kts
16-Apr-18 14:15 33.710892 -116.371504 316 6458ft 173kts
16-Apr-18 14:16 33.740307 -116.414507 308 5109ft 161kts
16-Apr-18 14:17 33.770042 -116.454803 318 3320ft 170kts
16-Apr-18 14:18 33.807868 -116.488486 321 919ft 160kts
16-Apr-18 14:19 33.830284 -116.508184 322 482ft 2kts

Navigation Log

Ident Type
Flight plan parsing failed, navigation log unavailable